createdAt,value
2019-06-08T00:01:07.572Z,0.00
2019-06-08T00:03:10.623Z,0.00
2019-06-08T00:06:07.819Z,0.00
2019-06-08T00:11:07.488Z,0.00
2019-06-08T00:14:07.676Z,0.00
2019-06-08T00:17:07.297Z,0.00
2019-06-08T00:18:07.292Z,0.00
2019-06-08T00:21:07.602Z,0.00
2019-06-08T00:22:07.286Z,0.00
2019-06-08T00:23:07.281Z,0.00
2019-06-08T00:24:07.257Z,0.00
2019-06-08T00:25:07.246Z,0.00
2019-06-08T00:26:07.168Z,0.00
2019-06-08T00:29:07.481Z,0.00
2019-06-08T00:32:07.113Z,0.00
2019-06-08T00:33:07.047Z,0.00
2019-06-08T00:38:34.012Z,0.00
2019-06-08T00:42:06.895Z,0.00
2019-06-08T00:43:06.928Z,0.00
2019-06-08T00:44:07.214Z,0.00
2019-06-08T00:45:06.954Z,0.00
2019-06-08T00:46:06.828Z,0.00
2019-06-08T00:47:06.800Z,0.00
2019-06-08T00:48:06.897Z,0.00
2019-06-08T00:49:06.780Z,0.00
2019-06-08T00:50:06.756Z,0.00
2019-06-08T00:51:07.027Z,0.00
2019-06-08T00:52:06.755Z,0.00
2019-06-08T00:53:06.726Z,0.00
2019-06-08T00:54:06.722Z,0.00
2019-06-08T00:55:06.599Z,0.00
2019-06-08T00:56:06.513Z,0.00
2019-06-08T00:57:06.504Z,0.00
2019-06-08T00:58:08.371Z,0.00
2019-06-08T00:59:06.471Z,0.00
2019-06-08T01:00:10.949Z,0.00
2019-06-08T01:01:06.621Z,0.00
2019-06-08T01:02:06.524Z,0.00
2019-06-08T01:03:06.838Z,0.00
2019-06-08T01:04:06.506Z,0.00
2019-06-08T01:06:06.737Z,0.00
2019-06-08T01:07:06.933Z,0.00
2019-06-08T01:11:06.325Z,0.00
2019-06-08T01:12:06.300Z,0.00
2019-06-08T01:13:06.542Z,0.00
2019-06-08T01:14:06.217Z,0.00
2019-06-08T01:15:06.810Z,0.00
2019-06-08T01:16:06.374Z,0.00
2019-06-08T01:17:06.367Z,0.00
2019-06-08T01:19:06.267Z,0.00
2019-06-08T01:20:06.607Z,0.00
2019-06-08T01:21:06.516Z,0.00
2019-06-08T01:22:06.259Z,0.00
2019-06-08T01:23:06.145Z,0.00
2019-06-08T01:24:06.195Z,0.00
2019-06-08T01:25:06.109Z,0.00
2019-06-08T01:26:06.187Z,0.00
2019-06-08T01:27:06.381Z,0.00
2019-06-08T01:28:06.057Z,0.00
2019-06-08T01:29:06.061Z,0.00
2019-06-08T01:30:06.175Z,0.00
2019-06-08T01:31:06.033Z,0.00
2019-06-08T01:32:06.087Z,0.00
2019-06-08T01:34:07.590Z,0.00
2019-06-08T01:35:06.642Z,0.00
2019-06-08T01:36:06.070Z,0.00
2019-06-08T01:37:05.980Z,0.00
2019-06-08T01:38:06.158Z,0.00
2019-06-08T01:39:05.973Z,0.00
2019-06-08T01:40:05.984Z,0.00
2019-06-08T01:41:06.376Z,0.00
2019-06-08T01:42:06.046Z,0.00
2019-06-08T01:43:05.986Z,0.00
2019-06-08T01:44:05.914Z,0.00
2019-06-08T01:45:05.917Z,0.00
2019-06-08T01:47:05.766Z,0.00
2019-06-08T01:48:19.521Z,0.00
2019-06-08T01:49:06.074Z,0.00
2019-06-08T01:50:05.603Z,0.00
2019-06-08T01:51:05.604Z,0.00
2019-06-08T01:52:05.619Z,0.00
2019-06-08T01:54:05.954Z,0.00
2019-06-08T01:55:05.515Z,0.00
2019-06-08T01:56:05.693Z,0.00
2019-06-08T01:57:05.746Z,0.00
2019-06-08T01:58:05.755Z,0.00
2019-06-08T01:59:05.794Z,0.00
2019-06-08T02:00:29.385Z,0.00
2019-06-08T02:01:05.682Z,0.00
2019-06-08T02:02:05.510Z,0.00
2019-06-08T02:03:06.004Z,0.00
2019-06-08T02:04:05.436Z,0.00
2019-06-08T02:05:05.633Z,0.00
2019-06-08T02:06:05.861Z,0.00
2019-06-08T02:07:05.791Z,0.00
2019-06-08T02:08:05.633Z,0.00
2019-06-08T02:09:05.440Z,0.00
2019-06-08T02:10:05.839Z,0.00
2019-06-08T02:12:05.330Z,0.00
2019-06-08T02:13:08.585Z,0.00
2019-06-08T02:14:05.421Z,0.00
2019-06-08T02:16:05.365Z,0.00
2019-06-08T02:17:05.891Z,4.00
2019-06-08T02:18:05.338Z,4.00
2019-06-08T02:19:05.186Z,0.00
2019-06-08T02:20:07.548Z,4.00
2019-06-08T02:21:05.691Z,4.00
2019-06-08T02:22:05.208Z,4.00
2019-06-08T02:23:05.211Z,4.00
2019-06-08T02:24:05.163Z,4.00
2019-06-08T02:26:05.573Z,8.00
2019-06-08T02:27:05.246Z,8.00
2019-06-08T02:28:05.104Z,8.00
2019-06-08T02:30:05.200Z,12.00
2019-06-08T02:31:05.014Z,12.00
2019-06-08T02:34:05.010Z,16.00
2019-06-08T02:35:05.968Z,20.00
2019-06-08T02:36:05.118Z,24.00
2019-06-08T02:38:05.127Z,28.00
2019-06-08T02:40:04.994Z,36.00
2019-06-08T02:41:04.867Z,36.00
2019-06-08T02:43:06.139Z,36.00
2019-06-08T02:44:04.892Z,36.00
2019-06-08T02:45:05.082Z,40.00
2019-06-08T02:46:04.907Z,44.00
2019-06-08T02:47:04.944Z,48.00
2019-06-08T02:49:05.156Z,60.00
2019-06-08T02:50:05.100Z,56.00
2019-06-08T02:53:04.761Z,64.00
2019-06-08T02:54:04.773Z,64.00
2019-06-08T02:56:05.047Z,64.00
2019-06-08T02:57:05.018Z,76.00
2019-06-08T02:58:04.603Z,76.00
2019-06-08T02:59:04.544Z,92.00
2019-06-08T03:00:04.626Z,88.00
2019-06-08T03:01:04.734Z,116.00
2019-06-08T03:02:04.580Z,132.00
2019-06-08T03:03:04.533Z,144.00
2019-06-08T03:04:04.861Z,164.00
2019-06-08T03:05:04.997Z,184.00
2019-06-08T03:06:04.581Z,208.00
2019-06-08T03:07:04.413Z,248.00
2019-06-08T03:08:04.427Z,236.00
2019-06-08T03:09:04.404Z,220.00
2019-06-08T03:10:04.754Z,216.00
2019-06-08T03:11:04.444Z,232.00
2019-06-08T03:12:04.759Z,268.00
2019-06-08T03:13:04.181Z,292.00
2019-06-08T03:15:04.378Z,280.00
2019-06-08T03:16:04.613Z,272.00
2019-06-08T03:17:04.202Z,300.00
2019-06-08T03:18:04.191Z,320.00
2019-06-08T03:19:20.126Z,324.00
2019-06-08T03:20:04.197Z,336.00
2019-06-08T03:21:04.132Z,376.00
2019-06-08T03:22:04.496Z,428.00
2019-06-08T03:24:03.973Z,544.00
2019-06-08T03:25:04.030Z,580.00
2019-06-08T03:27:03.920Z,676.00
2019-06-08T03:28:04.204Z,696.00
2019-06-08T03:29:03.891Z,776.00
2019-06-08T03:30:16.698Z,740.00
2019-06-08T03:31:04.010Z,716.00
2019-06-08T03:32:04.067Z,744.00
2019-06-08T03:33:03.966Z,644.00
2019-06-08T03:34:04.295Z,632.00
2019-06-08T03:35:03.969Z,640.00
2019-06-08T03:36:03.910Z,648.00
2019-06-08T03:37:03.872Z,688.00
2019-06-08T03:38:03.808Z,792.00
2019-06-08T03:39:03.789Z,932.00
2019-06-08T03:40:04.184Z,1036.00
2019-06-08T03:41:04.117Z,1084.00
2019-06-08T03:42:03.773Z,1180.00
2019-06-08T03:43:03.757Z,1296.00
2019-06-08T03:45:03.658Z,1532.00
2019-06-08T03:46:03.894Z,1544.00
2019-06-08T03:47:03.656Z,1492.00
2019-06-08T03:48:03.649Z,1452.00
2019-06-08T03:49:03.715Z,1516.00
2019-06-08T03:50:03.523Z,1520.00
2019-06-08T03:53:03.786Z,2084.00
2019-06-08T03:54:03.531Z,1972.00
2019-06-08T03:55:03.507Z,1644.00
2019-06-08T03:57:03.737Z,1604.00
2019-06-08T03:58:03.590Z,1576.00
2019-06-08T03:59:03.485Z,1948.00
2019-06-08T04:00:12.527Z,1996.00
2019-06-08T04:01:03.410Z,2364.00
2019-06-08T04:02:03.395Z,2468.00
2019-06-08T04:03:03.368Z,2068.00
2019-06-08T04:04:03.410Z,1984.00
2019-06-08T04:05:03.465Z,2360.00
2019-06-08T04:06:03.341Z,2436.00
2019-06-08T04:07:03.532Z,2908.00
2019-06-08T04:08:03.276Z,2680.00
2019-06-08T04:09:03.276Z,2160.00
2019-06-08T04:10:03.253Z,1632.00
2019-06-08T04:11:03.274Z,1428.00
2019-06-08T04:12:03.345Z,1392.00
2019-06-08T04:13:03.245Z,1376.00
2019-06-08T04:14:03.603Z,1528.00
2019-06-08T04:15:03.282Z,1644.00
2019-06-08T04:16:03.244Z,1748.00
2019-06-08T04:17:03.212Z,1860.00
2019-06-08T04:18:03.259Z,2140.00
2019-06-08T04:19:03.187Z,2016.00
2019-06-08T04:20:11.312Z,2184.00
2019-06-08T04:22:03.068Z,1604.00
2019-06-08T04:23:03.065Z,1436.00
2019-06-08T04:24:03.072Z,1384.00
2019-06-08T04:25:03.048Z,1376.00
2019-06-08T04:26:03.010Z,1412.00
2019-06-08T04:28:03.456Z,2248.00
2019-06-08T04:31:02.954Z,3124.00
2019-06-08T04:32:03.090Z,4120.00
2019-06-08T04:33:02.895Z,3288.00
2019-06-08T04:34:03.072Z,3128.00
2019-06-08T04:35:02.830Z,2632.00
2019-06-08T04:36:02.982Z,2476.00
2019-06-08T04:37:02.813Z,2300.00
2019-06-08T04:38:02.839Z,2188.00
2019-06-08T04:39:02.896Z,2336.00
2019-06-08T04:40:03.377Z,2692.00
2019-06-08T04:41:02.850Z,3276.00
2019-06-08T04:42:02.761Z,4404.00
2019-06-08T04:43:02.763Z,3364.00
2019-06-08T04:44:02.677Z,3504.00
2019-06-08T04:45:02.659Z,2884.00
2019-06-08T04:47:02.991Z,2796.00
2019-06-08T04:48:02.770Z,2964.00
2019-06-08T04:49:02.605Z,2892.00
2019-06-08T04:50:20.849Z,3280.00
2019-06-08T04:51:02.846Z,2836.00
2019-06-08T04:52:02.514Z,2572.00
2019-06-08T04:53:02.913Z,2708.00
2019-06-08T04:54:02.433Z,2716.00
2019-06-08T04:55:02.691Z,2852.00
2019-06-08T04:56:02.465Z,3312.00
2019-06-08T04:57:02.689Z,3280.00
2019-06-08T04:58:02.431Z,3220.00
2019-06-08T04:59:02.727Z,2772.00
2019-06-08T05:00:11.284Z,2464.00
2019-06-08T05:01:02.482Z,2756.00
2019-06-08T05:02:02.533Z,2816.00
2019-06-08T05:03:02.479Z,3764.00
2019-06-08T05:04:02.253Z,3232.00
2019-06-08T05:05:02.708Z,3060.00
2019-06-08T05:06:02.266Z,2996.00
2019-06-08T05:07:02.301Z,3200.00
2019-06-08T05:11:02.631Z,3756.00
2019-06-08T05:12:02.248Z,3672.00
2019-06-08T05:13:02.317Z,4292.00
2019-06-08T05:14:02.279Z,6080.00
2019-06-08T05:15:02.300Z,5544.00
2019-06-08T05:16:02.189Z,6984.00
2019-06-08T05:17:02.130Z,6256.00
2019-06-08T05:18:02.439Z,6024.00
2019-06-08T05:19:02.509Z,5912.00
2019-06-08T05:20:02.207Z,5884.00
2019-06-08T05:21:02.050Z,5256.00
2019-06-08T05:22:02.041Z,4344.00
2019-06-08T05:23:02.110Z,4040.00
2019-06-08T05:24:02.003Z,3644.00
2019-06-08T05:25:02.209Z,3840.00
2019-06-08T05:26:02.238Z,3628.00
2019-06-08T05:27:01.910Z,3492.00
2019-06-08T05:28:01.931Z,2976.00
2019-06-08T05:30:08.435Z,3076.00
2019-06-08T05:31:01.994Z,3444.00
2019-06-08T05:32:02.163Z,3292.00
2019-06-08T05:33:01.771Z,3136.00
2019-06-08T05:34:01.961Z,3284.00
2019-06-08T05:36:01.714Z,4468.00
2019-06-08T05:37:01.842Z,3692.00
2019-06-08T05:38:01.840Z,3920.00
2019-06-08T05:39:02.270Z,4592.00
2019-06-08T05:40:01.663Z,5396.00
2019-06-08T05:42:01.744Z,5208.00
2019-06-08T05:43:01.733Z,5908.00
2019-06-08T05:44:01.773Z,4548.00
2019-06-08T05:45:01.714Z,5036.00
2019-06-08T05:48:01.601Z,5604.00
2019-06-08T05:49:01.600Z,6256.00
2019-06-08T05:50:01.596Z,5216.00
2019-06-08T05:52:01.859Z,4752.00
2019-06-08T05:53:01.438Z,5184.00
2019-06-08T05:56:01.389Z,5720.00
2019-06-08T05:57:01.551Z,6528.00
2019-06-08T05:58:01.433Z,6816.00
2019-06-08T05:59:01.749Z,6396.00
2019-06-08T06:00:08.454Z,6196.00
2019-06-08T06:01:01.308Z,5564.00
2019-06-08T06:03:04.531Z,6148.00
2019-06-08T06:04:01.350Z,5232.00
2019-06-08T06:05:01.730Z,5724.00
2019-06-08T06:07:01.273Z,6048.00
2019-06-08T06:09:01.350Z,4524.00
2019-06-08T06:10:01.278Z,3772.00
2019-06-08T06:11:01.853Z,4508.00
2019-06-08T06:12:01.272Z,5516.00
2019-06-08T06:13:01.314Z,6280.00
2019-06-08T06:14:01.170Z,6972.00
2019-06-08T06:15:01.140Z,8696.00
2019-06-08T06:16:01.277Z,8864.00
2019-06-08T06:17:01.479Z,7484.00
2019-06-08T06:18:01.247Z,8828.00
2019-06-08T06:19:01.217Z,7000.00
2019-06-08T06:20:01.075Z,6296.00
2019-06-08T06:22:01.463Z,9284.00
2019-06-08T06:26:01.427Z,9868.00
2019-06-08T06:28:00.989Z,7780.00
2019-06-08T06:29:01.015Z,7908.00
2019-06-08T06:30:01.042Z,7336.00
2019-06-08T06:31:01.026Z,7388.00
2019-06-08T06:32:01.483Z,7816.00
2019-06-08T06:33:00.930Z,7432.00
2019-06-08T06:34:00.950Z,7412.00
2019-06-08T06:35:00.853Z,8008.00
2019-06-08T06:36:01.537Z,7084.00
2019-06-08T06:38:01.413Z,7884.00
2019-06-08T06:39:00.808Z,7816.00
2019-06-08T06:40:01.009Z,9472.00
2019-06-08T06:41:00.794Z,7976.00
2019-06-08T06:42:00.876Z,6276.00
2019-06-08T06:43:00.853Z,5816.00
2019-06-08T06:44:00.992Z,5576.00
2019-06-08T06:45:00.702Z,5692.00
2019-06-08T06:46:00.789Z,5780.00
2019-06-08T06:47:00.666Z,5900.00
2019-06-08T06:48:00.712Z,6636.00
2019-06-08T06:49:00.633Z,9300.00
2019-06-08T06:50:00.641Z,9296.00
2019-06-08T06:51:00.911Z,7720.00
2019-06-08T06:52:00.584Z,5228.00
2019-06-08T06:53:00.515Z,3672.00
2019-06-08T06:55:00.750Z,5628.00
2019-06-08T06:56:00.606Z,6812.00
2019-06-08T06:57:00.638Z,6392.00
2019-06-08T06:58:01.633Z,6364.00
2019-06-08T06:59:00.734Z,6208.00
2019-06-08T07:01:00.914Z,7788.00
2019-06-08T07:02:00.494Z,8060.00
2019-06-08T07:03:00.428Z,8972.00
2019-06-08T07:04:00.357Z,8696.00
2019-06-08T07:06:00.783Z,6276.00
2019-06-08T07:07:00.376Z,6984.00
2019-06-08T07:08:00.284Z,6012.00
2019-06-08T07:09:00.394Z,5784.00
2019-06-08T07:12:00.681Z,5072.00
2019-06-08T07:13:00.247Z,5652.00
2019-06-08T07:14:01.047Z,5192.00
2019-06-08T07:16:16.929Z,4928.00
2019-06-08T07:17:00.232Z,5968.00
2019-06-08T07:18:00.323Z,7516.00
2019-06-08T07:22:00.172Z,6608.00
2019-06-08T07:24:00.078Z,7064.00
2019-06-08T07:25:00.114Z,4952.00
2019-06-08T07:26:00.551Z,4680.00
2019-06-08T07:28:00.107Z,4864.00
2019-06-08T07:29:00.039Z,4512.00
2019-06-08T07:30:00.036Z,3916.00
2019-06-08T07:31:00.235Z,4368.00
2019-06-08T07:33:00.527Z,6060.00
2019-06-08T07:34:00.170Z,5860.00
2019-06-08T07:35:00.058Z,6052.00
2019-06-08T07:37:59.948Z,4188.00
2019-06-08T07:38:59.919Z,4212.00
2019-06-08T07:40:00.384Z,4216.00
2019-06-08T07:41:01.695Z,3744.00
2019-06-08T07:42:00.055Z,5488.00
2019-06-08T07:43:00.434Z,5160.00
2019-06-08T07:43:59.830Z,3920.00
2019-06-08T07:45:00.363Z,3988.00
2019-06-08T07:46:00.058Z,4540.00
2019-06-08T07:47:00.125Z,5164.00
2019-06-08T07:48:00.595Z,4980.00
2019-06-08T07:48:59.765Z,4732.00
2019-06-08T07:50:59.645Z,5036.00
2019-06-08T07:52:09.459Z,4208.00
2019-06-08T07:53:00.088Z,5252.00
2019-06-08T07:53:59.896Z,5484.00
2019-06-08T07:54:59.583Z,5572.00
2019-06-08T07:55:59.855Z,5836.00
2019-06-08T07:57:00.029Z,4992.00
2019-06-08T07:59:00.094Z,5744.00
2019-06-08T08:01:07.318Z,6308.00
2019-06-08T08:01:59.673Z,9552.00
2019-06-08T08:02:59.529Z,10924.00
2019-06-08T08:04:01.520Z,10912.00
2019-06-08T08:05:59.544Z,8684.00
2019-06-08T08:06:59.621Z,13948.00
2019-06-08T08:07:59.571Z,13912.00
2019-06-08T08:08:59.532Z,5292.00
2019-06-08T08:09:59.573Z,7764.00
2019-06-08T08:10:59.855Z,11092.00
2019-06-08T08:12:00.173Z,7508.00
2019-06-08T08:12:59.480Z,10888.00
2019-06-08T08:14:59.773Z,8440.00
2019-06-08T08:16:59.319Z,7964.00
2019-06-08T08:19:59.450Z,10712.00
2019-06-08T08:22:02.323Z,12232.00
2019-06-08T08:24:01.488Z,11100.00
2019-06-08T08:25:03.299Z,7232.00
2019-06-08T08:26:01.690Z,8480.00
2019-06-08T08:27:03.531Z,12176.00
2019-06-08T08:34:05.496Z,18080.00
2019-06-08T08:35:02.406Z,20864.00
2019-06-08T08:36:01.756Z,14976.00
2019-06-08T08:37:05.941Z,12788.00
2019-06-08T08:40:01.361Z,10348.00
2019-06-08T08:41:06.279Z,8540.00
2019-06-08T08:42:04.765Z,10204.00
2019-06-08T08:43:01.478Z,8688.00
2019-06-08T08:44:04.198Z,6448.00
2019-06-08T08:45:04.934Z,11112.00
2019-06-08T08:46:00.668Z,13036.00
2019-06-08T08:47:01.367Z,16416.00
2019-06-08T08:48:15.627Z,18112.00
2019-06-08T08:49:07.272Z,16640.00
2019-06-08T08:50:00.621Z,23392.00
2019-06-08T08:52:00.261Z,10672.00
2019-06-08T08:55:00.924Z,10384.00
2019-06-08T08:57:03.410Z,15104.00
2019-06-08T08:57:59.459Z,15200.00
2019-06-08T08:59:01.080Z,12708.00
2019-06-08T09:01:02.116Z,11692.00
2019-06-08T09:03:19.291Z,21632.00
2019-06-08T09:04:03.031Z,18496.00
2019-06-08T09:05:01.987Z,14880.00
2019-06-08T09:07:05.516Z,14368.00
2019-06-08T09:09:01.699Z,14212.00
2019-06-08T09:14:05.268Z,12104.00
2019-06-08T09:15:01.817Z,9692.00
2019-06-08T09:16:02.165Z,11592.00
2019-06-08T09:17:01.671Z,9060.00
2019-06-08T09:18:01.790Z,7780.00
2019-06-08T09:19:02.870Z,15176.00
2019-06-08T09:20:03.275Z,13360.00
2019-06-08T09:22:01.255Z,19552.00
2019-06-08T09:23:06.772Z,20160.00
2019-06-08T09:28:02.845Z,11476.00
2019-06-08T09:28:58.586Z,21696.00
2019-06-08T09:30:00.897Z,14464.00
2019-06-08T09:31:01.755Z,8356.00
2019-06-08T09:32:01.577Z,16608.00
2019-06-08T09:33:00.577Z,15648.00
2019-06-08T09:34:08.326Z,14300.00
2019-06-08T09:35:02.309Z,13620.00
2019-06-08T09:36:01.563Z,11068.00
2019-06-08T09:37:00.185Z,5728.00
2019-06-08T09:38:01.149Z,14244.00
2019-06-08T09:39:00.757Z,14816.00
2019-06-08T09:40:00.116Z,14416.00
2019-06-08T09:41:01.243Z,7908.00
2019-06-08T09:43:06.075Z,13432.00
2019-06-08T09:44:02.365Z,18432.00
2019-06-08T09:45:02.157Z,19872.00
2019-06-08T09:47:04.624Z,17920.00
2019-06-08T09:48:01.797Z,18464.00
2019-06-08T09:49:05.901Z,13804.00
2019-06-08T09:50:01.486Z,7296.00
2019-06-08T09:51:01.716Z,7736.00
2019-06-08T09:52:00.391Z,7592.00
2019-06-08T09:54:02.066Z,13112.00
2019-06-08T09:55:02.034Z,23104.00
2019-06-08T09:56:02.325Z,35360.00
2019-06-08T09:57:01.226Z,18144.00
2019-06-08T09:58:03.939Z,20032.00
2019-06-08T10:01:02.007Z,17568.00
2019-06-08T10:03:01.309Z,25120.00
2019-06-08T10:04:00.791Z,45152.00
2019-06-08T10:05:00.706Z,5952.00
2019-06-08T10:07:00.601Z,15020.00
2019-06-08T10:08:01.859Z,20224.00
2019-06-08T10:08:58.531Z,97184.00
2019-06-08T10:10:00.350Z,95456.00
2019-06-08T10:11:01.422Z,24736.00
2019-06-08T10:13:01.068Z,38336.00
2019-06-08T10:16:02.797Z,3696.00
2019-06-08T10:17:00.680Z,8612.00
2019-06-08T10:19:02.292Z,30720.00
2019-06-08T10:21:01.193Z,11304.00
2019-06-08T10:21:58.857Z,17504.00
2019-06-08T10:23:01.158Z,18208.00
2019-06-08T10:25:00.670Z,21728.00
2019-06-08T10:26:59.368Z,21728.00
2019-06-08T10:28:04.106Z,11652.00
2019-06-08T10:29:00.332Z,13868.00
2019-06-08T10:30:00.000Z,91552.00
2019-06-08T10:31:00.032Z,19936.00
2019-06-08T10:31:59.314Z,25760.00
2019-06-08T10:33:00.482Z,23392.00
2019-06-08T10:34:01.633Z,98336.00
2019-06-08T10:34:59.976Z,100544.00
2019-06-08T10:36:00.690Z,98880.00
2019-06-08T10:37:03.353Z,86560.00
2019-06-08T10:38:02.796Z,93120.00
2019-06-08T10:39:01.625Z,92992.00
2019-06-08T10:40:00.608Z,96832.00
2019-06-08T10:41:00.346Z,88704.00
2019-06-08T10:42:01.182Z,65536.00
2019-06-08T10:43:00.856Z,94304.00
2019-06-08T10:45:02.785Z,106496.00
2019-06-08T10:47:00.367Z,87168.00
2019-06-08T10:48:00.477Z,52704.00
2019-06-08T10:48:59.491Z,112480.00
2019-06-08T10:50:01.749Z,25056.00
2019-06-08T10:50:59.978Z,109504.00
2019-06-08T10:53:01.262Z,17984.00
2019-06-08T10:55:00.989Z,12412.00
2019-06-08T10:55:58.267Z,33792.00
2019-06-08T10:57:00.310Z,13540.00
2019-06-08T10:57:58.189Z,9240.00
2019-06-08T10:59:00.256Z,9060.00
2019-06-08T10:59:59.054Z,14420.00
2019-06-08T11:01:00.176Z,8880.00
2019-06-08T11:02:00.927Z,6888.00
2019-06-08T11:03:58.468Z,9768.00
2019-06-08T11:04:58.868Z,6912.00
2019-06-08T11:05:59.161Z,8692.00
2019-06-08T11:07:01.061Z,7228.00
2019-06-08T11:07:59.348Z,13192.00
2019-06-08T11:09:58.681Z,13792.00
2019-06-08T11:11:58.374Z,8576.00
2019-06-08T11:12:58.238Z,14704.00
2019-06-08T11:13:58.474Z,15904.00
2019-06-08T11:14:58.391Z,10352.00
2019-06-08T11:18:00.402Z,26496.00
2019-06-08T11:18:59.093Z,13132.00
2019-06-08T11:20:59.507Z,39008.00
2019-06-08T11:22:59.698Z,16192.00
2019-06-08T11:24:23.052Z,25856.00
2019-06-08T11:24:58.833Z,36000.00
2019-06-08T11:26:58.092Z,34688.00
2019-06-08T11:27:58.647Z,27360.00
2019-06-08T11:28:58.600Z,29408.00
2019-06-08T11:30:57.707Z,33760.00
2019-06-08T11:31:58.678Z,32864.00
2019-06-08T11:33:58.880Z,33440.00
2019-06-08T11:34:57.409Z,25792.00
2019-06-08T11:35:58.196Z,28608.00
2019-06-08T11:36:59.613Z,23552.00
2019-06-08T11:38:59.231Z,49536.00
2019-06-08T11:39:57.703Z,29536.00
2019-06-08T11:41:00.955Z,31488.00
2019-06-08T11:41:58.805Z,52896.00
2019-06-08T11:42:58.594Z,34240.00
2019-06-08T11:43:59.598Z,84736.00
2019-06-08T11:45:58.413Z,73088.00
2019-06-08T11:46:57.949Z,33536.00
2019-06-08T11:48:57.664Z,13532.00
2019-06-08T11:49:57.710Z,28544.00
2019-06-08T11:50:58.526Z,25248.00
2019-06-08T11:51:58.312Z,19584.00
2019-06-08T11:53:00.093Z,11188.00
2019-06-08T11:53:59.272Z,13464.00
2019-06-08T11:55:00.292Z,32224.00
2019-06-08T11:55:58.528Z,19488.00
2019-06-08T11:56:57.665Z,15904.00
2019-06-08T11:57:58.605Z,16128.00
2019-06-08T11:58:57.944Z,40576.00
2019-06-08T11:59:58.456Z,46144.00
2019-06-08T12:01:01.039Z,27712.00
2019-06-08T12:01:58.647Z,35840.00
2019-06-08T12:03:57.934Z,9600.00
2019-06-08T12:04:57.332Z,24096.00
2019-06-08T12:05:58.331Z,18272.00
2019-06-08T12:06:58.401Z,12436.00
2019-06-08T12:08:57.438Z,13344.00
2019-06-08T12:09:58.363Z,17664.00
2019-06-08T12:11:01.223Z,21312.00
2019-06-08T12:11:58.123Z,29504.00
2019-06-08T12:12:57.402Z,88928.00
2019-06-08T12:13:58.485Z,97696.00
2019-06-08T12:14:58.286Z,19296.00
2019-06-08T12:15:58.863Z,47680.00
2019-06-08T12:16:58.150Z,95968.00
2019-06-08T12:17:58.718Z,90048.00
2019-06-08T12:18:58.565Z,50944.00
2019-06-08T12:19:57.732Z,80672.00
2019-06-08T12:20:58.329Z,69312.00
2019-06-08T12:21:57.993Z,84928.00
2019-06-08T12:22:56.941Z,85344.00
2019-06-08T12:24:56.914Z,92608.00
2019-06-08T12:25:57.214Z,63232.00
2019-06-08T12:27:03.493Z,50880.00
2019-06-08T12:27:58.544Z,24064.00
2019-06-08T12:29:58.788Z,20128.00
2019-06-08T12:30:56.872Z,18592.00
2019-06-08T12:32:58.117Z,13260.00
2019-06-08T12:35:57.873Z,11976.00
2019-06-08T12:36:58.341Z,19296.00
2019-06-08T12:37:58.063Z,26752.00
2019-06-08T12:39:57.967Z,68864.00
2019-06-08T12:41:58.312Z,44704.00
2019-06-08T12:42:59.441Z,86048.00
2019-06-08T12:44:58.718Z,96480.00
2019-06-08T12:45:58.097Z,69984.00
2019-06-08T12:46:58.542Z,82752.00
2019-06-08T12:47:56.735Z,83424.00
2019-06-08T12:48:58.341Z,183200.00
2019-06-08T12:49:58.500Z,87488.00
2019-06-08T12:51:58.092Z,0.00
2019-06-08T12:52:58.315Z,93952.00
2019-06-08T12:54:00.013Z,66560.00
2019-06-08T12:55:57.966Z,17760.00
2019-06-08T12:57:58.127Z,9712.00
2019-06-08T12:59:59.829Z,7052.00
2019-06-08T13:00:57.958Z,12800.00
2019-06-08T13:01:58.671Z,19488.00
2019-06-08T13:02:58.134Z,51040.00
2019-06-08T13:03:58.112Z,47872.00
2019-06-08T13:05:57.565Z,18048.00
2019-06-08T13:06:58.452Z,24288.00
2019-06-08T13:07:58.819Z,99264.00
2019-06-08T13:08:57.766Z,25760.00
2019-06-08T13:09:58.358Z,20032.00
2019-06-08T13:10:57.464Z,12212.00
2019-06-08T13:12:58.413Z,17472.00
2019-06-08T13:13:56.564Z,16928.00
2019-06-08T13:15:58.022Z,42656.00
2019-06-08T13:16:56.538Z,10772.00
2019-06-08T13:17:58.647Z,17440.00
2019-06-08T13:18:58.694Z,26592.00
2019-06-08T13:19:58.174Z,103136.00
2019-06-08T13:20:59.005Z,95456.00
2019-06-08T13:23:58.129Z,9028.00
2019-06-08T13:25:15.170Z,14224.00
2019-06-08T13:25:56.531Z,18656.00
2019-06-08T13:26:57.886Z,22528.00
2019-06-08T13:27:58.324Z,14448.00
2019-06-08T13:28:58.325Z,85952.00
2019-06-08T13:29:57.826Z,83328.00
2019-06-08T13:31:58.680Z,143328.00
2019-06-08T13:32:57.979Z,20064.00
2019-06-08T13:34:58.221Z,70016.00
2019-06-08T13:35:57.976Z,63328.00
2019-06-08T13:37:57.583Z,0.00
2019-06-08T13:38:56.788Z,18368.00
2019-06-08T13:39:59.049Z,33824.00
2019-06-08T13:40:58.593Z,17368.00
2019-06-08T13:41:56.647Z,20544.00
2019-06-08T13:42:58.231Z,36320.00
2019-06-08T13:44:57.803Z,11600.00
2019-06-08T13:45:58.323Z,13340.00
2019-06-08T13:46:57.777Z,10840.00
2019-06-08T13:47:58.597Z,11240.00
2019-06-08T13:49:56.390Z,12148.00
2019-06-08T13:51:58.401Z,13524.00
2019-06-08T13:52:58.678Z,9392.00
2019-06-08T13:53:58.182Z,10200.00
2019-06-08T13:54:58.209Z,10408.00
2019-06-08T13:55:56.862Z,6972.00
2019-06-08T13:56:58.784Z,9496.00
2019-06-08T13:58:56.215Z,8728.00
2019-06-08T13:59:57.838Z,7772.00
2019-06-08T14:01:57.970Z,7248.00
2019-06-08T14:02:57.856Z,4940.00
2019-06-08T14:03:58.165Z,9076.00
2019-06-08T14:05:56.137Z,8424.00
2019-06-08T14:06:58.131Z,7576.00
2019-06-08T14:07:58.842Z,5916.00
2019-06-08T14:08:58.004Z,6612.00
2019-06-08T14:09:58.281Z,7172.00
2019-06-08T14:10:57.930Z,6012.00
2019-06-08T14:11:57.746Z,4244.00
2019-06-08T14:12:58.331Z,4428.00
2019-06-08T14:14:00.829Z,5544.00
2019-06-08T14:14:58.265Z,7364.00
2019-06-08T14:15:58.449Z,5052.00
2019-06-08T14:16:58.460Z,3172.00
2019-06-08T14:17:58.059Z,7108.00
2019-06-08T14:18:56.298Z,7628.00
2019-06-08T14:19:55.969Z,7348.00
2019-06-08T14:20:58.432Z,7528.00
2019-06-08T14:21:56.580Z,6852.00
2019-06-08T14:23:58.591Z,7148.00
2019-06-08T14:24:56.131Z,7860.00
2019-06-08T14:25:59.466Z,6284.00
2019-06-08T14:26:58.274Z,9488.00
2019-06-08T14:27:57.627Z,16468.00
2019-06-08T14:29:00.727Z,15124.00
2019-06-08T14:29:58.254Z,7376.00
2019-06-08T14:30:55.854Z,9540.00
2019-06-08T14:31:57.761Z,9780.00
2019-06-08T14:32:57.769Z,11904.00
2019-06-08T14:33:56.114Z,8488.00
2019-06-08T14:34:58.340Z,18272.00
2019-06-08T14:35:58.955Z,17984.00
2019-06-08T14:36:55.778Z,10344.00
2019-06-08T14:38:55.801Z,12660.00
2019-06-08T14:39:57.447Z,14016.00
2019-06-08T14:40:56.256Z,18976.00
2019-06-08T14:41:57.695Z,0.00
2019-06-08T14:42:57.942Z,25632.00
2019-06-08T14:44:57.745Z,9552.00
2019-06-08T14:46:57.896Z,15936.00
2019-06-08T14:47:55.656Z,10860.00
2019-06-08T14:48:58.333Z,16320.00
2019-06-08T14:49:55.696Z,16192.00
2019-06-08T14:51:57.785Z,8048.00
2019-06-08T14:52:58.615Z,9856.00
2019-06-08T14:53:58.146Z,8784.00
2019-06-08T14:54:56.513Z,4092.00
2019-06-08T14:56:57.580Z,12964.00
2019-06-08T14:57:57.858Z,14944.00
2019-06-08T14:58:58.058Z,9384.00
2019-06-08T14:59:57.194Z,8608.00
2019-06-08T15:00:57.883Z,6844.00
2019-06-08T15:01:55.802Z,6536.00
2019-06-08T15:02:55.507Z,9796.00
2019-06-08T15:03:55.650Z,12796.00
2019-06-08T15:04:55.479Z,10416.00
2019-06-08T15:05:57.631Z,12936.00
2019-06-08T15:06:55.459Z,16064.00
2019-06-08T15:08:55.500Z,8856.00
2019-06-08T15:09:55.527Z,10156.00
2019-06-08T15:10:57.837Z,12124.00
2019-06-08T15:11:57.996Z,14812.00
2019-06-08T15:12:57.579Z,11872.00
2019-06-08T15:13:55.429Z,12072.00
2019-06-08T15:16:58.871Z,6772.00
2019-06-08T15:17:57.950Z,6816.00
2019-06-08T15:18:55.365Z,4468.00
2019-06-08T15:21:55.363Z,9308.00
2019-06-08T15:22:57.702Z,7920.00
2019-06-08T15:23:57.754Z,7012.00
2019-06-08T15:25:55.264Z,4404.00
2019-06-08T15:26:58.163Z,6000.00
2019-06-08T15:28:00.653Z,5880.00